Mount Hood Parkdale, OR (97041)

7:44 PM PDT on August 04, 2015 (GMT -0700)
Parkdale West | | Change Station
CLOSE
Current Station
Personal Weather Station
Location: Mt Hood Parkdale, OR
Elevation: 1473 ft
Nearby Weather Stations
Active Advisory: Fire Weather Warning

Elev 1473 ft 45.54 °N, 121.62 °W | Updated 1 second ago

Clear
Clear
72.1 °F
Feels Like 77 °F
N
3.0
Wind Variable Wind from SW
Gusts 0.0 mph

Today
High -- | Low -- °F
--% Chance of Precip.
Yesterday
High -- | Low -- °F
Precip. -- in
5:53 AM 8:30 PM
Waning Gibbous, 72% visible
Pressure 29.83 in
Visibility 10.0 miles
Clouds Clear
Heat Index 77 °F
Dew Point 43 °F
Humidity 35%
Rainfall in
Snow Depth Not available.
UV 1 out of 12
Pollen 5.20 out of 12
Air Quality Not available.
Flu Activity Not available.
METAR KDLS 050153Z AUTO 30016KT 10SM CLR 29/02 A2983 RMK AO2 PK WND 28026/0138 SLP100 T02890022

More Conditions Fewer Conditions

Pressure 29.83 in
Visibility 10.0 miles
Clouds Clear
Heat Index 77 °F
Dew Point 43 °F
Humidity 35%
Rainfall in
Snow Depth Not available.
UV 1 out of 12
Pollen 5.20 out of 12
Air Quality Not available.
Flu Activity Not available.
METAR KDLS 050153Z AUTO 30016KT 10SM CLR 29/02 A2983 RMK AO2 PK WND 28026/0138 SLP100 T02890022

More Conditions Fewer Conditions

10-Day Weather Forecast

×

Almanac

Astronomy

Aug. 04, 2015 Rise Set
Actual Time
Civil Twilight
Nautical Twilight
Astronomical Twilight
Moon
Length of Visible Light
Length of Day
Tomorrow will be .
, % of the Moon is Illuminated

Today's Extremes

State Highs State Lows

Community

WunderPhotos

Upload Photos

1,844,089 photos uploaded!

WunderBlogs® & News

Nearby

Air Quality

  Air Quality AQ Index Pollutant
Not available.

Snow Depth

Station Depth Elevation

Earthquake Activity

City Distance Mag. Time & Date
Minimum magnitude displayed is 2.5.

Coastal Water Temperatures

Place Temperature

Stations

Nearby Weather Stations

Station Location Temp. Windchill Dew Point Humidity Wind Precip. Elev Updated Type
                   
Fire Weather Warning
Statement as of 2:34 PM PDT on August 04, 2015

... Red flag warning remains in effect until 9 PM PDT this evening
for gusty winds and low relative humidity...

* affected area... Washington and Oregon fire zones 639 and 641
and Washington zone 675 which includes the east slopes of the
southern Washington and northern Oregon Cascades... the lower
Columbia Basin... the Yakima Valley... and the Hanford district.

* Timing... strongest winds will occur between 2 PM and 8 PM.

* Wind... west to northwest 10 to 20 mph with gusts to 25 mph.

* Humidity... 12-25 percent this afternoon.

* Impacts... any fires that develop will likely spread rapidly.
Outdoor burning is not recommended.

Precautionary/preparedness actions...

A red flag warning means that critical fire weather conditions
are either occurring now... or will shortly. A combination of
strong winds... low relative humidity... and warm temperatures can
contribute to extreme fire behavior.